sensor_id;sensor_type;location;lat;lon;timestamp;pressure;altitude;pressure_sealevel;temperature;humidity
23361;BME280;11852;50.082;18.554;2023-05-21T00:02:18;98986.0;;;16.74;82.28
23361;BME280;11852;50.082;18.554;2023-05-21T00:15:00;98986.0;;;16.73;82.26
23361;BME280;11852;50.082;18.554;2023-05-21T00:19:30;98981.5;;;16.51;83.64
23361;BME280;11852;50.082;18.554;2023-05-21T00:24:06;98980.0;;;16.34;84.12
23361;BME280;11852;50.082;18.554;2023-05-21T00:29:32;98976.5;;;16.36;84.11
23361;BME280;11852;50.082;18.554;2023-05-21T00:36:48;98976.5;;;16.22;84.6
23361;BME280;11852;50.082;18.554;2023-05-21T00:39:45;98969.0;;;16.05;84.97
23361;BME280;11852;50.082;18.554;2023-05-21T00:45:25;98970.0;;;15.99;85.13
23361;BME280;11852;50.082;18.554;2023-05-21T00:50:43;98963.0;;;15.97;85.16
23361;BME280;11852;50.082;18.554;2023-05-21T00:57:49;98956.5;;;16.01;85.0
23361;BME280;11852;50.082;18.554;2023-05-21T01:00:46;98957.5;;;16.05;84.87
23361;BME280;11852;50.082;18.554;2023-05-21T01:04:02;98953.5;;;15.98;85.06
23361;BME280;11852;50.082;18.554;2023-05-21T01:06:57;98951.0;;;15.92;85.31
23361;BME280;11852;50.082;18.554;2023-05-21T01:08:04;98953.0;;;15.92;85.28
23361;BME280;11852;50.082;18.554;2023-05-21T01:09:14;98953.0;;;15.92;85.34
23361;BME280;11852;50.082;18.554;2023-05-21T01:10:23;98951.0;;;15.94;85.26
23361;BME280;11852;50.082;18.554;2023-05-21T01:14:11;98947.5;;;15.9;85.38
23361;BME280;11852;50.082;18.554;2023-05-21T01:18:13;98944.0;;;15.92;85.35
23361;BME280;11852;50.082;18.554;2023-05-21T01:34:27;98935.0;;;15.86;85.54
23361;BME280;11852;50.082;18.554;2023-05-21T01:42:19;98929.51;;;15.86;85.6
23361;BME280;11852;50.082;18.554;2023-05-21T01:43:45;98929.0;;;15.8;85.9
23361;BME280;11852;50.082;18.554;2023-05-21T01:54:56;98925.0;;;15.8;85.92
23361;BME280;11852;50.082;18.554;2023-05-21T02:19:01;98910.5;;;15.7;86.29
23361;BME280;11852;50.082;18.554;2023-05-21T02:22:44;98912.5;;;15.78;86.04
23361;BME280;11852;50.082;18.554;2023-05-21T02:28:13;98914.0;;;15.79;86.01
23361;BME280;11852;50.082;18.554;2023-05-21T02:33:51;98916.5;;;15.78;85.99
23361;BME280;11852;50.082;18.554;2023-05-21T02:35:00;98913.0;;;15.86;85.93
23361;BME280;11852;50.082;18.554;2023-05-21T02:36:59;98909.0;;;15.84;85.68
23361;BME280;11852;50.082;18.554;2023-05-21T02:45:48;98899.0;;;15.7;86.13
23361;BME280;11852;50.082;18.554;2023-05-21T02:59:21;98899.5;;;15.76;85.86
23361;BME280;11852;50.082;18.554;2023-05-21T03:02:29;98902.0;;;15.81;85.69
23361;BME280;11852;50.082;18.554;2023-05-21T03:21:09;98910.0;;;15.68;86.16
23361;BME280;11852;50.082;18.554;2023-05-21T03:24:10;98910.0;;;15.77;85.82
23361;BME280;11852;50.082;18.554;2023-05-21T03:26:09;98908.5;;;15.72;86.03
23361;BME280;11852;50.082;18.554;2023-05-21T03:27:42;98912.0;;;15.77;85.92
23361;BME280;11852;50.082;18.554;2023-05-21T03:28:49;98907.99;;;15.72;86.06
23361;BME280;11852;50.082;18.554;2023-05-21T04:05:10;98907.5;;;15.87;86.03
23361;BME280;11852;50.082;18.554;2023-05-21T04:16:45;98910.0;;;16.08;85.81
23361;BME280;11852;50.082;18.554;2023-05-21T04:21:18;98915.0;;;16.07;86.07
23361;BME280;11852;50.082;18.554;2023-05-21T04:37:57;98913.5;;;16.41;85.65
23361;BME280;11852;50.082;18.554;2023-05-21T05:19:14;98934.5;;;17.24;85.07
23361;BME280;11852;50.082;18.554;2023-05-21T05:21:17;98935.0;;;17.18;85.1
23361;BME280;11852;50.082;18.554;2023-05-21T05:26:46;98934.5;;;17.44;84.67
23361;BME280;11852;50.082;18.554;2023-05-21T05:33:51;98931.0;;;17.76;84.29
23361;BME280;11852;50.082;18.554;2023-05-21T05:42:26;98929.0;;;17.72;84.78
23361;BME280;11852;50.082;18.554;2023-05-21T05:47:55;98927.0;;;18.23;83.75
23361;BME280;11852;50.082;18.554;2023-05-21T05:58:38;98918.5;;;18.28;81.81
23361;BME280;11852;50.082;18.554;2023-05-21T06:00:32;98919.5;;;18.18;81.78
23361;BME280;11852;50.082;18.554;2023-05-21T06:01:44;98920.0;;;18.22;81.55
23361;BME280;11852;50.082;18.554;2023-05-21T06:02:54;98919.0;;;18.14;81.24
23361;BME280;11852;50.082;18.554;2023-05-21T06:04:35;98916.5;;;18.26;80.39
23361;BME280;11852;50.082;18.554;2023-05-21T06:06:07;98916.5;;;18.29;80.51
23361;BME280;11852;50.082;18.554;2023-05-21T06:09:15;98919.0;;;18.55;79.79
23361;BME280;11852;50.082;18.554;2023-05-21T06:11:34;98914.5;;;18.73;79.65
23361;BME280;11852;50.082;18.554;2023-05-21T06:19:19;98915.0;;;19.13;79.13
23361;BME280;11852;50.082;18.554;2023-05-21T06:20:47;98915.0;;;19.45;77.54
23361;BME280;11852;50.082;18.554;2023-05-21T06:27:21;98907.49;;;19.98;76.68
23361;BME280;11852;50.082;18.554;2023-05-21T06:28:31;98907.49;;;20.14;76.25
23361;BME280;11852;50.082;18.554;2023-05-21T06:32:34;98905.0;;;20.14;74.24
23361;BME280;11852;50.082;18.554;2023-05-21T06:34:00;98903.0;;;20.23;74.26
23361;BME280;11852;50.082;18.554;2023-05-21T06:35:19;98901.0;;;20.23;74.26
23361;BME280;11852;50.082;18.554;2023-05-21T06:36:44;98900.0;;;20.23;74.85
23361;BME280;11852;50.082;18.554;2023-05-21T06:37:51;98898.0;;;20.06;74.07
23361;BME280;11852;50.082;18.554;2023-05-21T06:39:09;98898.0;;;20.06;74.39
23361;BME280;11852;50.082;18.554;2023-05-21T06:40:27;98898.0;;;20.17;73.53
23361;BME280;11852;50.082;18.554;2023-05-21T06:41:44;98896.5;;;20.2;73.71
23361;BME280;11852;50.082;18.554;2023-05-21T06:42:51;98897.0;;;20.46;72.54
23361;BME280;11852;50.082;18.554;2023-05-21T06:45:30;98897.0;;;20.67;72.68
23361;BME280;11852;50.082;18.554;2023-05-21T06:46:43;98897.0;;;20.67;72.68
23361;BME280;11852;50.082;18.554;2023-05-21T06:47:50;98897.0;;;20.67;72.68
23361;BME280;11852;50.082;18.554;2023-05-21T06:49:06;98897.0;;;20.67;72.68
23361;BME280;11852;50.082;18.554;2023-05-21T06:50:13;98897.0;;;20.67;72.68
23361;BME280;11852;50.082;18.554;2023-05-21T06:52:24;98897.0;;;20.67;72.68
23361;BME280;11852;50.082;18.554;2023-05-21T06:53:29;98897.0;;;20.67;72.68
23361;BME280;11852;50.082;18.554;2023-05-21T06:54:53;98897.0;;;20.67;72.68
23361;BME280;11852;50.082;18.554;2023-05-21T06:55:49;98897.0;;;20.67;72.68
23361;BME280;11852;50.082;18.554;2023-05-21T06:56:54;98897.0;;;20.67;72.68
23361;BME280;11852;50.082;18.554;2023-05-21T06:58:00;98897.0;;;20.67;72.68
23361;BME280;11852;50.082;18.554;2023-05-21T06:59:10;98897.0;;;20.67;72.68
23361;BME280;11852;50.082;18.554;2023-05-21T07:00:20;98897.0;;;20.67;72.68
23361;BME280;11852;50.082;18.554;2023-05-21T07:01:39;98897.0;;;20.67;72.68
23361;BME280;11852;50.082;18.554;2023-05-21T07:02:52;98897.0;;;20.67;72.68
23361;BME280;11852;50.082;18.554;2023-05-21T07:03:57;98897.0;;;20.67;72.68
23361;BME280;11852;50.082;18.554;2023-05-21T07:06:44;98897.0;;;20.67;72.68
23361;BME280;11852;50.082;18.554;2023-05-21T07:07:57;98897.0;;;20.67;72.68
23361;BME280;11852;50.082;18.554;2023-05-21T07:09:23;98897.0;;;20.67;72.68
23361;BME280;11852;50.082;18.554;2023-05-21T07:11:26;98897.0;;;20.67;72.68
23361;BME280;11852;50.082;18.554;2023-05-21T07:12:50;98897.0;;;20.67;72.68
23361;BME280;11852;50.082;18.554;2023-05-21T07:14:21;98897.0;;;20.67;72.68
23361;BME280;11852;50.082;18.554;2023-05-21T07:15:36;98897.0;;;20.67;72.68
23361;BME280;11852;50.082;18.554;2023-05-21T07:17:06;98897.0;;;20.67;72.68
23361;BME280;11852;50.082;18.554;2023-05-21T07:18:15;98897.0;;;20.67;72.68
23361;BME280;11852;50.082;18.554;2023-05-21T07:19:22;98897.0;;;20.67;72.68
23361;BME280;11852;50.082;18.554;2023-05-21T07:23:35;98897.0;;;20.67;72.68
23361;BME280;11852;50.082;18.554;2023-05-21T07:25:18;98897.0;;;20.67;72.68
23361;BME280;11852;50.082;18.554;2023-05-21T07:26:39;98897.0;;;20.67;72.68
23361;BME280;11852;50.082;18.554;2023-05-21T07:28:19;98897.0;;;20.67;72.68
23361;BME280;11852;50.082;18.554;2023-05-21T07:29:28;98897.0;;;20.67;72.68
23361;BME280;11852;50.082;18.554;2023-05-21T07:31:28;98897.0;;;20.67;72.68
23361;BME280;11852;50.082;18.554;2023-05-21T07:32:34;98897.0;;;20.67;72.68
23361;BME280;11852;50.082;18.554;2023-05-21T07:33:44;98897.0;;;20.67;72.68
23361;BME280;11852;50.082;18.554;2023-05-21T07:34:49;98897.0;;;20.67;72.68
23361;BME280;11852;50.082;18.554;2023-05-21T07:36:07;98897.0;;;20.67;72.68
23361;BME280;11852;50.082;18.554;2023-05-21T07:37:15;98897.0;;;20.67;72.68
23361;BME280;11852;50.082;18.554;2023-05-21T07:38:43;98897.0;;;20.67;72.68
23361;BME280;11852;50.082;18.554;2023-05-21T07:39:59;98897.0;;;20.67;72.68
23361;BME280;11852;50.082;18.554;2023-05-21T07:41:17;98897.0;;;20.67;72.68
23361;BME280;11852;50.082;18.554;2023-05-21T07:42:28;98897.0;;;20.67;72.68
23361;BME280;11852;50.082;18.554;2023-05-21T07:43:33;98897.0;;;20.67;72.68
23361;BME280;11852;50.082;18.554;2023-05-21T07:44:43;98897.0;;;20.67;72.68
23361;BME280;11852;50.082;18.554;2023-05-21T07:45:48;98897.0;;;20.67;72.68
23361;BME280;11852;50.082;18.554;2023-05-21T07:47:05;98897.0;;;20.67;72.68
23361;BME280;11852;50.082;18.554;2023-05-21T07:48:10;98897.0;;;20.67;72.68
23361;BME280;11852;50.082;18.554;2023-05-21T07:49:33;98897.0;;;20.67;72.68
23361;BME280;11852;50.082;18.554;2023-05-21T07:51:06;98897.0;;;20.67;72.68
23361;BME280;11852;50.082;18.554;2023-05-21T07:52:14;98897.0;;;20.67;72.68
23361;BME280;11852;50.082;18.554;2023-05-21T07:53:19;98897.0;;;20.67;72.68
23361;BME280;11852;50.082;18.554;2023-05-21T07:54:24;98897.0;;;20.67;72.68
23361;BME280;11852;50.082;18.554;2023-05-21T07:55:40;98897.0;;;20.67;72.68
23361;BME280;11852;50.082;18.554;2023-05-21T07:56:46;98897.0;;;20.67;72.68
23361;BME280;11852;50.082;18.554;2023-05-21T07:57:56;98897.0;;;20.67;72.68
23361;BME280;11852;50.082;18.554;2023-05-21T07:59:02;98897.0;;;20.67;72.68
23361;BME280;11852;50.082;18.554;2023-05-21T08:00:14;98897.0;;;20.67;72.68
23361;BME280;11852;50.082;18.554;2023-05-21T08:01:14;98897.0;;;20.67;72.68
23361;BME280;11852;50.082;18.554;2023-05-21T08:02:22;98897.0;;;20.67;72.68
23361;BME280;11852;50.082;18.554;2023-05-21T08:03:27;98897.0;;;20.67;72.68
23361;BME280;11852;50.082;18.554;2023-05-21T08:04:36;98897.0;;;20.67;72.68
23361;BME280;11852;50.082;18.554;2023-05-21T08:05:48;98897.0;;;20.67;72.68
23361;BME280;11852;50.082;18.554;2023-05-21T08:06:53;98897.0;;;20.67;72.68
23361;BME280;11852;50.082;18.554;2023-05-21T08:07:59;98897.0;;;20.67;72.68
23361;BME280;11852;50.082;18.554;2023-05-21T08:09:04;98897.0;;;20.67;72.68
23361;BME280;11852;50.082;18.554;2023-05-21T08:10:09;98897.0;;;20.67;72.68
23361;BME280;11852;50.082;18.554;2023-05-21T08:11:14;98897.0;;;20.67;72.68
23361;BME280;11852;50.082;18.554;2023-05-21T08:12:19;98897.0;;;20.67;72.68
23361;BME280;11852;50.082;18.554;2023-05-21T08:13:30;98897.0;;;20.67;72.68
23361;BME280;11852;50.082;18.554;2023-05-21T08:14:34;98897.0;;;20.67;72.68
23361;BME280;11852;50.082;18.554;2023-05-21T08:15:41;98897.0;;;20.67;72.68
23361;BME280;11852;50.082;18.554;2023-05-21T08:16:45;98897.0;;;20.67;72.68
23361;BME280;11852;50.082;18.554;2023-05-21T08:17:50;98897.0;;;20.67;72.68
23361;BME280;11852;50.082;18.554;2023-05-21T08:19:08;98897.0;;;20.67;72.68
23361;BME280;11852;50.082;18.554;2023-05-21T08:20:13;98897.0;;;20.67;72.68
23361;BME280;11852;50.082;18.554;2023-05-21T08:21:18;98897.0;;;20.67;72.68
23361;BME280;11852;50.082;18.554;2023-05-21T08:22:28;98897.0;;;20.67;72.68
23361;BME280;11852;50.082;18.554;2023-05-21T08:23:33;98897.0;;;20.67;72.68
23361;BME280;11852;50.082;18.554;2023-05-21T08:24:38;98897.0;;;20.67;72.68
23361;BME280;11852;50.082;18.554;2023-05-21T08:25:44;98897.0;;;20.67;72.68
23361;BME280;11852;50.082;18.554;2023-05-21T08:26:50;98897.0;;;20.67;72.68
23361;BME280;11852;50.082;18.554;2023-05-21T08:27:57;98897.0;;;20.67;72.68
23361;BME280;11852;50.082;18.554;2023-05-21T08:29:02;98897.0;;;20.67;72.68
23361;BME280;11852;50.082;18.554;2023-05-21T08:30:14;98897.0;;;20.67;72.68
23361;BME280;11852;50.082;18.554;2023-05-21T08:31:20;98878.5;;;22.4;67.18
23361;BME280;11852;50.082;18.554;2023-05-21T08:32:25;98878.5;;;22.4;67.18
23361;BME280;11852;50.082;18.554;2023-05-21T08:33:35;98878.5;;;22.4;67.18
23361;BME280;11852;50.082;18.554;2023-05-21T08:34:42;98878.5;;;22.4;67.18
23361;BME280;11852;50.082;18.554;2023-05-21T08:35:47;98878.5;;;22.4;67.18
23361;BME280;11852;50.082;18.554;2023-05-21T08:37:07;98878.5;;;22.4;67.18
23361;BME280;11852;50.082;18.554;2023-05-21T08:38:14;98878.5;;;22.4;67.18
23361;BME280;11852;50.082;18.554;2023-05-21T08:39:19;98878.5;;;22.4;67.18
23361;BME280;11852;50.082;18.554;2023-05-21T08:40:24;98878.5;;;22.4;67.18
23361;BME280;11852;50.082;18.554;2023-05-21T08:41:31;98878.5;;;22.4;67.18
23361;BME280;11852;50.082;18.554;2023-05-21T08:42:43;98878.5;;;22.4;67.18
23361;BME280;11852;50.082;18.554;2023-05-21T08:43:47;98878.5;;;22.4;67.18
23361;BME280;11852;50.082;18.554;2023-05-21T08:44:58;98878.5;;;22.4;67.18
23361;BME280;11852;50.082;18.554;2023-05-21T08:46:03;98878.5;;;22.4;67.18
23361;BME280;11852;50.082;18.554;2023-05-21T08:47:12;98878.5;;;22.4;67.18
23361;BME280;11852;50.082;18.554;2023-05-21T08:48:16;98878.5;;;22.4;67.18
23361;BME280;11852;50.082;18.554;2023-05-21T08:49:24;98878.5;;;22.4;67.18
23361;BME280;11852;50.082;18.554;2023-05-21T08:50:28;98878.5;;;22.4;67.18
23361;BME280;11852;50.082;18.554;2023-05-21T08:51:34;98878.5;;;22.4;67.18
23361;BME280;11852;50.082;18.554;2023-05-21T08:52:39;98878.5;;;22.4;67.18
23361;BME280;11852;50.082;18.554;2023-05-21T08:53:45;98878.5;;;22.4;67.18
23361;BME280;11852;50.082;18.554;2023-05-21T08:54:52;98878.5;;;22.4;67.18
23361;BME280;11852;50.082;18.554;2023-05-21T08:55:57;98878.5;;;22.4;67.18
23361;BME280;11852;50.082;18.554;2023-05-21T08:57:12;98878.5;;;22.4;67.18
23361;BME280;11852;50.082;18.554;2023-05-21T08:58:18;98878.5;;;24.03;67.18
23361;BME280;11852;50.082;18.554;2023-05-21T08:59:23;98878.5;;;24.03;67.18
23361;BME280;11852;50.082;18.554;2023-05-21T09:00:31;98878.5;;;24.03;67.18
23361;BME280;11852;50.082;18.554;2023-05-21T09:01:37;98878.5;;;24.03;67.18
23361;BME280;11852;50.082;18.554;2023-05-21T09:02:45;98878.5;;;24.03;67.18
23361;BME280;11852;50.082;18.554;2023-05-21T09:03:50;98878.5;;;24.03;67.18
23361;BME280;11852;50.082;18.554;2023-05-21T09:04:57;98878.5;;;24.03;67.18
23361;BME280;11852;50.082;18.554;2023-05-21T09:06:10;98878.5;;;24.03;67.18
23361;BME280;11852;50.082;18.554;2023-05-21T09:07:21;98878.5;;;24.03;67.18
23361;BME280;11852;50.082;18.554;2023-05-21T09:08:37;98878.5;;;24.03;67.18
23361;BME280;11852;50.082;18.554;2023-05-21T09:09:48;98878.5;;;24.03;67.18
23361;BME280;11852;50.082;18.554;2023-05-21T09:10:52;98878.5;;;24.03;67.18
23361;BME280;11852;50.082;18.554;2023-05-21T09:11:57;98878.5;;;24.03;67.18
23361;BME280;11852;50.082;18.554;2023-05-21T09:13:02;98878.5;;;24.03;67.18
23361;BME280;11852;50.082;18.554;2023-05-21T09:14:07;98878.5;;;24.03;67.18
23361;BME280;11852;50.082;18.554;2023-05-21T09:15:12;98878.5;;;24.03;67.18
23361;BME280;11852;50.082;18.554;2023-05-21T09:17:14;98878.5;;;24.03;67.18
23361;BME280;11852;50.082;18.554;2023-05-21T09:18:19;98878.5;;;24.03;67.18
23361;BME280;11852;50.082;18.554;2023-05-21T09:21:29;98878.5;;;24.03;67.18
23361;BME280;11852;50.082;18.554;2023-05-21T09:23:11;98878.5;;;24.03;67.18
23361;BME280;11852;50.082;18.554;2023-05-21T09:24:23;98878.5;;;24.03;67.18
23361;BME280;11852;50.082;18.554;2023-05-21T09:26:11;98878.5;;;24.03;67.18
23361;BME280;11852;50.082;18.554;2023-05-21T09:28:09;98878.5;;;24.03;67.18
23361;BME280;11852;50.082;18.554;2023-05-21T09:29:27;98878.5;;;24.03;67.18
23361;BME280;11852;50.082;18.554;2023-05-21T09:30:32;98878.5;;;24.03;67.18
23361;BME280;11852;50.082;18.554;2023-05-21T09:32:36;98878.5;;;24.03;67.18
23361;BME280;11852;50.082;18.554;2023-05-21T09:34:27;98878.5;;;24.03;67.18
23361;BME280;11852;50.082;18.554;2023-05-21T09:46:57;98878.5;;;24.03;67.18
23361;BME280;11852;50.082;18.554;2023-05-21T09:48:43;98878.5;;;24.03;67.18
23361;BME280;11852;50.082;18.554;2023-05-21T10:09:25;98878.5;;;24.03;67.18
23361;BME280;11852;50.082;18.554;2023-05-21T10:31:15;98878.5;;;24.03;67.18
23361;BME280;11852;50.082;18.554;2023-05-21T10:32:20;98878.5;;;24.03;67.18
23361;BME280;11852;50.082;18.554;2023-05-21T10:33:25;98878.5;;;24.03;67.18
23361;BME280;11852;50.082;18.554;2023-05-21T10:34:34;98878.5;;;24.03;67.18
23361;BME280;11852;50.082;18.554;2023-05-21T10:35:43;98878.5;;;24.03;67.18
23361;BME280;11852;50.082;18.554;2023-05-21T10:48:08;98878.5;;;24.03;67.18
23361;BME280;11852;50.082;18.554;2023-05-21T10:49:19;98878.5;;;24.03;67.18
23361;BME280;11852;50.082;18.554;2023-05-21T11:06:46;98878.5;;;24.03;67.18
23361;BME280;11852;50.082;18.554;2023-05-21T11:08:43;98878.5;;;24.03;67.18
23361;BME280;11852;50.082;18.554;2023-05-21T11:09:51;98878.5;;;24.03;67.18
23361;BME280;11852;50.082;18.554;2023-05-21T11:16:44;98878.5;;;24.03;67.18
23361;BME280;11852;50.082;18.554;2023-05-21T11:21:50;98827.5;;;24.59;63.02
23361;BME280;11852;50.082;18.554;2023-05-21T11:24:00;98761.0;;;25.28;41.74
23361;BME280;11852;50.082;18.554;2023-05-21T11:29:06;98755.01;;;25.76;41.65
23361;BME280;11852;50.082;18.554;2023-05-21T11:30:17;98761.0;;;25.63;41.35
23361;BME280;11852;50.082;18.554;2023-05-21T11:35:56;98749.5;;;25.44;39.31
23361;BME280;11852;50.082;18.554;2023-05-21T11:38:42;98754.51;;;25.74;39.63
23361;BME280;11852;50.082;18.554;2023-05-21T11:39:49;98752.0;;;25.72;39.37
23361;BME280;11852;50.082;18.554;2023-05-21T11:41:02;98748.5;;;25.59;38.31
23361;BME280;11852;50.082;18.554;2023-05-21T11:42:37;98750.0;;;25.52;38.76
23361;BME280;11852;50.082;18.554;2023-05-21T12:07:53;98734.0;;;25.65;40.15
23361;BME280;11852;50.082;18.554;2023-05-21T12:10:44;98734.0;;;25.97;39.76
23361;BME280;11852;50.082;18.554;2023-05-21T12:12:14;98731.0;;;26.07;40.57
23361;BME280;11852;50.082;18.554;2023-05-21T12:13:21;98727.0;;;25.88;39.55
23361;BME280;11852;50.082;18.554;2023-05-21T12:14:30;98729.5;;;26.01;39.88
23361;BME280;11852;50.082;18.554;2023-05-21T12:16:27;98731.5;;;26.06;39.86
23361;BME280;11852;50.082;18.554;2023-05-21T12:17:37;98731.0;;;25.98;38.93
23361;BME280;11852;50.082;18.554;2023-05-21T12:19:41;98725.5;;;25.76;38.83
23361;BME280;11852;50.082;18.554;2023-05-21T12:20:48;98726.5;;;25.53;38.06
23361;BME280;11852;50.082;18.554;2023-05-21T12:21:55;98728.5;;;25.53;38.79
23361;BME280;11852;50.082;18.554;2023-05-21T12:23:02;98724.0;;;25.3;38.13
23361;BME280;11852;50.082;18.554;2023-05-21T12:24:10;98728.5;;;25.42;38.51
23361;BME280;11852;50.082;18.554;2023-05-21T12:25:45;98727.0;;;25.6;37.61
23361;BME280;11852;50.082;18.554;2023-05-21T12:26:53;98722.5;;;25.61;38.24
23361;BME280;11852;50.082;18.554;2023-05-21T12:28:08;98730.01;;;25.8;39.13
23361;BME280;11852;50.082;18.554;2023-05-21T12:29:17;98731.99;;;25.84;38.85
23361;BME280;11852;50.082;18.554;2023-05-21T12:30:24;98734.0;;;26.03;39.49
23361;BME280;11852;50.082;18.554;2023-05-21T12:31:32;98726.5;;;26.16;39.15
23361;BME280;11852;50.082;18.554;2023-05-21T12:32:39;98723.5;;;26.19;40.12
23361;BME280;11852;50.082;18.554;2023-05-21T12:33:46;98722.5;;;26.31;39.06
23361;BME280;11852;50.082;18.554;2023-05-21T12:34:58;98724.0;;;26.39;39.82
23361;BME280;11852;50.082;18.554;2023-05-21T12:36:05;98723.5;;;26.28;39.48
23361;BME280;11852;50.082;18.554;2023-05-21T12:37:21;98721.5;;;25.91;39.18
23361;BME280;11852;50.082;18.554;2023-05-21T12:38:29;98721.0;;;25.84;39.11
23361;BME280;11852;50.082;18.554;2023-05-21T12:39:44;98726.0;;;25.99;39.26
23361;BME280;11852;50.082;18.554;2023-05-21T12:40:52;98724.5;;;26.17;38.17
23361;BME280;11852;50.082;18.554;2023-05-21T12:42:01;98726.0;;;26.11;38.33
23361;BME280;11852;50.082;18.554;2023-05-21T12:43:16;98725.0;;;26.05;38.12
23361;BME280;11852;50.082;18.554;2023-05-21T12:44:28;98729.0;;;26.01;38.51
23361;BME280;11852;50.082;18.554;2023-05-21T12:45:31;98727.0;;;26.08;38.2
23361;BME280;11852;50.082;18.554;2023-05-21T12:46:38;98722.5;;;26.12;37.54
23361;BME280;11852;50.082;18.554;2023-05-21T12:47:48;98723.5;;;25.79;37.21
23361;BME280;11852;50.082;18.554;2023-05-21T12:48:57;98720.49;;;25.69;37.7
23361;BME280;11852;50.082;18.554;2023-05-21T12:50:07;98719.5;;;25.58;37.38
23361;BME280;11852;50.082;18.554;2023-05-21T12:51:14;98718.5;;;25.67;37.75
23361;BME280;11852;50.082;18.554;2023-05-21T12:52:26;98718.0;;;25.89;37.68
23361;BME280;11852;50.082;18.554;2023-05-21T12:53:36;98715.5;;;25.92;38.36
23361;BME280;11852;50.082;18.554;2023-05-21T12:54:44;98717.5;;;26.15;37.53
23361;BME280;11852;50.082;18.554;2023-05-21T12:56:12;98717.01;;;26.18;37.35
23361;BME280;11852;50.082;18.554;2023-05-21T12:57:33;98713.5;;;26.01;36.9
23361;BME280;11852;50.082;18.554;2023-05-21T12:58:32;98713.0;;;26.17;37.53
23361;BME280;11852;50.082;18.554;2023-05-21T13:00:56;98709.5;;;26.18;36.88
23361;BME280;11852;50.082;18.554;2023-05-21T13:02:03;98708.5;;;26.06;36.6
23361;BME280;11852;50.082;18.554;2023-05-21T13:03:16;98710.0;;;26.05;36.3
23361;BME280;11852;50.082;18.554;2023-05-21T13:04:28;98708.5;;;26.05;37.29
23361;BME280;11852;50.082;18.554;2023-05-21T13:05:40;98706.0;;;26.06;36.82
23361;BME280;11852;50.082;18.554;2023-05-21T13:06:50;98706.0;;;26.0;37.01
23361;BME280;11852;50.082;18.554;2023-05-21T13:08:15;98701.0;;;26.0;36.63
23361;BME280;11852;50.082;18.554;2023-05-21T13:09:28;98698.0;;;26.01;37.29
23361;BME280;11852;50.082;18.554;2023-05-21T13:10:35;98698.0;;;26.17;37.13
23361;BME280;11852;50.082;18.554;2023-05-21T13:11:52;98699.5;;;26.15;37.11
23361;BME280;11852;50.082;18.554;2023-05-21T13:13:01;98701.5;;;25.89;37.25
23361;BME280;11852;50.082;18.554;2023-05-21T13:14:18;98696.5;;;25.85;38.03
23361;BME280;11852;50.082;18.554;2023-05-21T13:15:26;98695.49;;;25.35;37.4
23361;BME280;11852;50.082;18.554;2023-05-21T13:16:33;98692.5;;;25.4;37.65
23361;BME280;11852;50.082;18.554;2023-05-21T13:17:54;98692.01;;;25.37;37.46
23361;BME280;11852;50.082;18.554;2023-05-21T13:19:01;98688.0;;;25.27;37.81
23361;BME280;11852;50.082;18.554;2023-05-21T13:20:18;98689.5;;;25.25;37.69
23361;BME280;11852;50.082;18.554;2023-05-21T13:21:31;98688.0;;;25.21;36.99
23361;BME280;11852;50.082;18.554;2023-05-21T13:22:55;98689.0;;;25.18;37.24
23361;BME280;11852;50.082;18.554;2023-05-21T13:24:12;98689.5;;;25.18;37.11
23361;BME280;11852;50.082;18.554;2023-05-21T13:26:22;98689.5;;;25.18;37.11
23361;BME280;11852;50.082;18.554;2023-05-21T13:27:31;98683.5;;;25.13;35.26
23361;BME280;11852;50.082;18.554;2023-05-21T13:28:50;98677.5;;;25.11;35.31
23361;BME280;11852;50.082;18.554;2023-05-21T13:30:04;98680.0;;;25.12;35.65
23361;BME280;11852;50.082;18.554;2023-05-21T13:31:20;98682.99;;;25.14;35.35
23361;BME280;11852;50.082;18.554;2023-05-21T13:32:31;98681.99;;;25.16;35.9
23361;BME280;11852;50.082;18.554;2023-05-21T13:33:44;98678.0;;;25.19;35.72
23361;BME280;11852;50.082;18.554;2023-05-21T13:35:07;98677.0;;;25.19;35.13
23361;BME280;11852;50.082;18.554;2023-05-21T13:36:21;98676.0;;;25.22;35.99
23361;BME280;11852;50.082;18.554;2023-05-21T13:37:24;98675.0;;;25.27;36.66
23361;BME280;11852;50.082;18.554;2023-05-21T13:38:32;98670.49;;;25.2;36.81
23361;BME280;11852;50.082;18.554;2023-05-21T13:39:39;98671.0;;;25.18;37.34
23361;BME280;11852;50.082;18.554;2023-05-21T13:40:48;98670.0;;;25.21;37.47
23361;BME280;11852;50.082;18.554;2023-05-21T13:41:59;98666.0;;;25.27;37.8
23361;BME280;11852;50.082;18.554;2023-05-21T13:43:07;98668.5;;;25.48;38.83
23361;BME280;11852;50.082;18.554;2023-05-21T13:44:14;98672.0;;;25.56;38.36
23361;BME280;11852;50.082;18.554;2023-05-21T13:45:21;98666.0;;;25.4;38.09
23361;BME280;11852;50.082;18.554;2023-05-21T13:46:42;98668.0;;;25.39;38.15
23361;BME280;11852;50.082;18.554;2023-05-21T13:47:49;98670.0;;;25.54;38.51
23361;BME280;11852;50.082;18.554;2023-05-21T13:49:12;98673.5;;;25.59;38.97
23361;BME280;11852;50.082;18.554;2023-05-21T13:50:30;98676.5;;;25.61;38.83
23361;BME280;11852;50.082;18.554;2023-05-21T13:52:01;98673.5;;;25.64;38.77
23361;BME280;11852;50.082;18.554;2023-05-21T13:53:08;98670.5;;;25.85;38.57
23361;BME280;11852;50.082;18.554;2023-05-21T13:54:15;98671.5;;;25.92;38.76
23361;BME280;11852;50.082;18.554;2023-05-21T13:55:21;98673.0;;;25.92;38.88
23361;BME280;11852;50.082;18.554;2023-05-21T13:56:28;98670.5;;;25.92;37.88
23361;BME280;11852;50.082;18.554;2023-05-21T13:57:37;98667.5;;;25.9;37.75
23361;BME280;11852;50.082;18.554;2023-05-21T13:59:53;98669.0;;;25.72;36.56
23361;BME280;11852;50.082;18.554;2023-05-21T14:01:05;98669.5;;;25.74;37.76
23361;BME280;11852;50.082;18.554;2023-05-21T14:02:12;98672.0;;;25.95;37.12
23361;BME280;11852;50.082;18.554;2023-05-21T14:03:20;98671.5;;;26.08;37.28
23361;BME280;11852;50.082;18.554;2023-05-21T14:04:27;98676.0;;;26.05;37.35
23361;BME280;11852;50.082;18.554;2023-05-21T14:05:34;98671.0;;;25.74;37.29
23361;BME280;11852;50.082;18.554;2023-05-21T14:06:46;98670.49;;;25.72;37.14